Messwerte Deer Park

Temperatur

Temperatur
°C
1614308400 19.00 19.00 4
1614312000 20.00 20.00 3
1614315600 21.00 21.00 2
1614319200 22.00 22.00 2
1614322800 23.00 23.00 2
1614326400 0.00 0.00 1
1614330000 1.00 1.00 1
1614333600 2.00 2.00 1
1614337200 3.00 3.00 1
1614340800 4.00 4.00 0
1614344400 5.00 5.00
1614348000 6.00 6.00 -1
1614351600 7.00 7.00 0
1614355200 8.00 8.00 0
1614358800 9.00 9.00 1
1614362400 10.00 10.00 2
1614366000 11.00 11.00 3
1614369600 12.00 12.00 3
1614373200 13.00 13.00 4
1614376800 14.00 14.00 4
1614380400 15.00 15.00 5
1614384000 16.00 16.00 6
1614387600 17.00 17.00 4
1614391200 18.00 18.00 3

Aktuellste Messwerte

Wettercharakter
Wetter: wechselnd bewölkt
Temperatur
2 °C
Feuchtigkeit
55 %
Wind
10 km/hWindrichtung: West
Luftdruck
1007 hPa
Messzeit: 26. Februar 2021, 19.00Datenquelle: METAR

Weitere Messstationen in der Nähe

Messstation Temperatur Entfernung
Spokane 3 °C 36 km
Spokane 2 °C 39 km
Fairchild Air Force Base 2 °C 43 km
Coeur d'Alene 0 °C 51 km
Sandpoint -2 °C 74 km
Pullman / Moscow 0 °C 139 km
Creston 0 °C 141 km

Wind

Windrichtung Böen Mittelwind
° km/h km/h
1614308400 19.00 18.00 - 19.00 240° 40 30
1614312000 20.00 19.00 - 20.00 250° 25
1614315600 21.00 20.00 - 21.00 250° 10
1614319200 22.00 21.00 - 22.00 250° 25
1614322800 23.00 22.00 - 23.00 250° 25
1614326400 0.00 23.00 - 0.00 190° 20
1614330000 1.00 0.00 - 1.00 190° 15
1614333600 2.00 1.00 - 2.00 190° 20
1614337200 3.00 2.00 - 3.00 220° 20
1614340800 4.00 3.00 - 4.00 200° 15
1614344400 5.00 4.00 - 5.00
1614348000 6.00 5.00 - 6.00 180° 15
1614351600 7.00 6.00 - 7.00 180° 15
1614355200 8.00 7.00 - 8.00 180° 15
1614358800 9.00 8.00 - 9.00 190° 5
1614362400 10.00 9.00 - 10.00
1614366000 11.00 10.00 - 11.00 260° 10
1614369600 12.00 11.00 - 12.00 270° 5
1614373200 13.00 12.00 - 13.00 310° 20
1614376800 14.00 13.00 - 14.00 270° 15
1614380400 15.00 14.00 - 15.00 230° 10
1614384000 16.00 15.00 - 16.00 260° 10
1614387600 17.00 16.00 - 17.00 210° 10
1614391200 18.00 17.00 - 18.00 210° 15

Ihre Wetterstation

Fehlt Ihre Wetterstation auf unserem Portal?

Schreiben Sie an network@meteonews.ch

Klima

Wann ist es am wärmsten? Wann regnet es am wenigsten? Unsere Klimadaten geben Auskunft.